sensor_id;sensor_type;location;lat;lon;timestamp;pressure;altitude;pressure_sealevel;temperature;humidity
41264;BME280;26998;48.714;9.414;2023-07-22T00:00:30;98892.31;;;12.54;100.00
41264;BME280;26998;48.714;9.414;2023-07-22T00:02:57;98895.63;;;12.42;100.00
41264;BME280;26998;48.714;9.414;2023-07-22T00:05:23;98896.88;;;12.46;100.00
41264;BME280;26998;48.714;9.414;2023-07-22T00:07:50;98903.91;;;12.34;100.00
41264;BME280;26998;48.714;9.414;2023-07-22T00:10:17;98906.56;;;12.41;100.00
41264;BME280;26998;48.714;9.414;2023-07-22T00:12:43;98911.47;;;12.64;100.00
41264;BME280;26998;48.714;9.414;2023-07-22T00:15:10;98907.63;;;12.40;100.00
41264;BME280;26998;48.714;9.414;2023-07-22T00:17:36;98922.44;;;12.42;100.00
41264;BME280;26998;48.714;9.414;2023-07-22T00:20:03;98925.34;;;12.34;100.00
41264;BME280;26998;48.714;9.414;2023-07-22T00:22:30;98924.31;;;12.29;100.00
41264;BME280;26998;48.714;9.414;2023-07-22T00:24:56;98920.81;;;12.21;100.00
41264;BME280;26998;48.714;9.414;2023-07-22T00:27:23;98914.03;;;12.12;100.00
41264;BME280;26998;48.714;9.414;2023-07-22T00:29:50;98915.25;;;12.10;100.00
41264;BME280;26998;48.714;9.414;2023-07-22T00:32:16;98914.84;;;12.19;100.00
41264;BME280;26998;48.714;9.414;2023-07-22T00:34:43;98915.66;;;12.13;100.00
41264;BME280;26998;48.714;9.414;2023-07-22T00:37:09;98912.34;;;12.18;100.00
41264;BME280;26998;48.714;9.414;2023-07-22T00:39:36;98918.75;;;12.17;100.00
41264;BME280;26998;48.714;9.414;2023-07-22T00:42:02;98909.88;;;12.23;100.00
41264;BME280;26998;48.714;9.414;2023-07-22T00:44:29;98908.44;;;12.14;100.00
41264;BME280;26998;48.714;9.414;2023-07-22T00:46:57;98916.28;;;12.02;100.00
41264;BME280;26998;48.714;9.414;2023-07-22T00:49:25;98909.06;;;11.96;100.00
41264;BME280;26998;48.714;9.414;2023-07-22T00:51:52;98906.38;;;11.96;100.00
41264;BME280;26998;48.714;9.414;2023-07-22T00:54:19;98908.66;;;11.99;100.00
41264;BME280;26998;48.714;9.414;2023-07-22T00:56:46;98900.44;;;11.87;100.00
41264;BME280;26998;48.714;9.414;2023-07-22T00:59:14;98906.56;;;11.81;100.00
41264;BME280;26998;48.714;9.414;2023-07-22T01:01:41;98894.59;;;11.77;100.00
41264;BME280;26998;48.714;9.414;2023-07-22T01:04:07;98891.72;;;11.72;100.00
41264;BME280;26998;48.714;9.414;2023-07-22T01:06:35;98898.13;;;11.77;100.00
41264;BME280;26998;48.714;9.414;2023-07-22T01:09:05;98894.81;;;11.69;100.00
41264;BME280;26998;48.714;9.414;2023-07-22T01:11:32;98897.25;;;11.64;100.00
41264;BME280;26998;48.714;9.414;2023-07-22T01:13:58;98896.22;;;11.65;100.00
41264;BME280;26998;48.714;9.414;2023-07-22T01:16:26;98890.47;;;11.68;100.00
41264;BME280;26998;48.714;9.414;2023-07-22T01:18:54;98889.06;;;11.78;100.00
41264;BME280;26998;48.714;9.414;2023-07-22T01:21:24;98889.88;;;11.79;100.00
41264;BME280;26998;48.714;9.414;2023-07-22T01:23:51;98891.09;;;11.83;100.00
41264;BME280;26998;48.714;9.414;2023-07-22T01:26:19;98898.72;;;11.73;100.00
41264;BME280;26998;48.714;9.414;2023-07-22T01:28:45;98889.47;;;11.69;100.00
41264;BME280;26998;48.714;9.414;2023-07-22T01:31:12;98891.91;;;11.64;100.00
41264;BME280;26998;48.714;9.414;2023-07-22T01:33:38;98884.50;;;11.59;100.00
41264;BME280;26998;48.714;9.414;2023-07-22T01:36:05;98879.97;;;11.66;100.00
41264;BME280;26998;48.714;9.414;2023-07-22T01:38:31;98878.53;;;11.57;100.00
41264;BME280;26998;48.714;9.414;2023-07-22T01:41:05;98879.34;;;11.51;100.00
41264;BME280;26998;48.714;9.414;2023-07-22T01:43:32;98877.88;;;11.42;100.00
41264;BME280;26998;48.714;9.414;2023-07-22T01:45:58;98879.09;;;11.39;100.00
41264;BME280;26998;48.714;9.414;2023-07-22T01:48:25;98869.19;;;11.33;100.00
41264;BME280;26998;48.714;9.414;2023-07-22T01:50:51;98874.78;;;11.45;100.00
41264;BME280;26998;48.714;9.414;2023-07-22T01:53:18;98876.66;;;11.44;100.00
41264;BME280;26998;48.714;9.414;2023-07-22T01:55:44;98875.41;;;11.40;100.00
41264;BME280;26998;48.714;9.414;2023-07-22T01:58:11;98875.38;;;11.27;100.00
41264;BME280;26998;48.714;9.414;2023-07-22T02:00:38;98874.53;;;11.26;100.00
41264;BME280;26998;48.714;9.414;2023-07-22T02:03:04;98877.22;;;11.26;100.00
41264;BME280;26998;48.714;9.414;2023-07-22T02:05:31;98872.50;;;11.35;100.00
41264;BME280;26998;48.714;9.414;2023-07-22T02:07:57;98881.19;;;11.44;100.00
41264;BME280;26998;48.714;9.414;2023-07-22T02:10:24;98885.75;;;11.63;100.00
41264;BME280;26998;48.714;9.414;2023-07-22T02:12:50;98881.59;;;11.41;100.00
41264;BME280;26998;48.714;9.414;2023-07-22T02:15:17;98885.50;;;11.38;100.00
41264;BME280;26998;48.714;9.414;2023-07-22T02:17:44;98877.88;;;11.42;100.00
41264;BME280;26998;48.714;9.414;2023-07-22T02:20:10;98886.53;;;11.37;100.00
41264;BME280;26998;48.714;9.414;2023-07-22T02:22:37;98891.63;;;11.25;100.00
41264;BME280;26998;48.714;9.414;2023-07-22T02:25:04;98902.38;;;11.45;100.00
41264;BME280;26998;48.714;9.414;2023-07-22T02:27:31;98893.28;;;11.26;100.00
41264;BME280;26998;48.714;9.414;2023-07-22T02:29:57;98900.47;;;11.26;100.00
41264;BME280;26998;48.714;9.414;2023-07-22T02:32:24;98894.72;;;11.22;100.00
41264;BME280;26998;48.714;9.414;2023-07-22T02:34:50;98899.28;;;11.35;100.00
41264;BME280;26998;48.714;9.414;2023-07-22T02:37:17;98904.22;;;11.38;100.00
41264;BME280;26998;48.714;9.414;2023-07-22T02:39:44;98908.06;;;11.16;100.00
41264;BME280;26998;48.714;9.414;2023-07-22T02:42:11;98904.53;;;11.08;100.00
41264;BME280;26998;48.714;9.414;2023-07-22T02:44:37;98900.41;;;11.06;100.00
41264;BME280;26998;48.714;9.414;2023-07-22T02:47:04;98899.56;;;11.05;100.00
41264;BME280;26998;48.714;9.414;2023-07-22T02:49:30;98900.38;;;10.99;100.00
41264;BME280;26998;48.714;9.414;2023-07-22T02:51:57;98893.38;;;10.98;100.00
41264;BME280;26998;48.714;9.414;2023-07-22T02:54:23;98886.00;;;11.00;100.00
41264;BME280;26998;48.714;9.414;2023-07-22T02:56:49;98890.97;;;11.17;100.00
41264;BME280;26998;48.714;9.414;2023-07-22T02:59:16;98901.03;;;11.08;100.00
41264;BME280;26998;48.714;9.414;2023-07-22T03:01:43;98893.81;;;11.08;100.00
41264;BME280;26998;48.714;9.414;2023-07-22T03:04:09;98906.50;;;10.93;100.00
41264;BME280;26998;48.714;9.414;2023-07-22T03:06:36;98903.25;;;10.98;100.00
41264;BME280;26998;48.714;9.414;2023-07-22T03:09:02;98900.59;;;10.98;100.00
41264;BME280;26998;48.714;9.414;2023-07-22T03:11:29;98905.53;;;11.01;100.00
41264;BME280;26998;48.714;9.414;2023-07-22T03:13:55;98899.13;;;10.95;100.00
41264;BME280;26998;48.714;9.414;2023-07-22T03:16:23;98907.16;;;10.95;100.00
41264;BME280;26998;48.714;9.414;2023-07-22T03:18:49;98904.06;;;10.92;100.00
41264;BME280;26998;48.714;9.414;2023-07-22T03:21:16;98908.16;;;10.88;100.00
41264;BME280;26998;48.714;9.414;2023-07-22T03:23:43;98906.59;;;11.06;100.00
41264;BME280;26998;48.714;9.414;2023-07-22T03:26:09;98908.59;;;10.98;100.00
41264;BME280;26998;48.714;9.414;2023-07-22T03:28:36;98911.25;;;10.91;100.00
41264;BME280;26998;48.714;9.414;2023-07-22T03:31:03;98907.81;;;11.04;100.00
41264;BME280;26998;48.714;9.414;2023-07-22T03:33:29;98910.91;;;11.07;100.00
41264;BME280;26998;48.714;9.414;2023-07-22T03:35:56;98918.16;;;11.20;100.00
41264;BME280;26998;48.714;9.414;2023-07-22T03:38:22;98918.09;;;11.07;100.00
41264;BME280;26998;48.714;9.414;2023-07-22T03:40:49;98933.88;;;10.95;100.00
41264;BME280;26998;48.714;9.414;2023-07-22T03:43:15;98936.81;;;11.00;100.00
41264;BME280;26998;48.714;9.414;2023-07-22T03:45:42;98933.78;;;10.75;100.00
41264;BME280;26998;48.714;9.414;2023-07-22T03:48:08;98925.97;;;10.74;100.00
41264;BME280;26998;48.714;9.414;2023-07-22T03:50:35;98916.69;;;10.70;100.00
41264;BME280;26998;48.714;9.414;2023-07-22T03:53:01;98914.69;;;10.78;100.00
41264;BME280;26998;48.714;9.414;2023-07-22T03:55:28;98913.09;;;10.91;100.00
41264;BME280;26998;48.714;9.414;2023-07-22T03:57:55;98920.94;;;10.99;100.00
41264;BME280;26998;48.714;9.414;2023-07-22T04:00:21;98918.38;;;10.77;100.00
41264;BME280;26998;48.714;9.414;2023-07-22T04:02:48;98921.69;;;10.79;100.00
41264;BME280;26998;48.714;9.414;2023-07-22T04:05:15;98918.75;;;10.74;100.00
41264;BME280;26998;48.714;9.414;2023-07-22T04:07:42;98921.16;;;10.97;100.00
41264;BME280;26998;48.714;9.414;2023-07-22T04:10:08;98921.97;;;10.98;100.00
41264;BME280;26998;48.714;9.414;2023-07-22T04:12:35;98920.34;;;11.03;100.00
41264;BME280;26998;48.714;9.414;2023-07-22T04:15:02;98915.84;;;11.10;100.00
41264;BME280;26998;48.714;9.414;2023-07-22T04:17:28;98920.00;;;11.20;100.00
41264;BME280;26998;48.714;9.414;2023-07-22T04:19:55;98936.41;;;11.03;100.00
41264;BME280;26998;48.714;9.414;2023-07-22T04:22:22;98932.28;;;11.01;100.00
41264;BME280;26998;48.714;9.414;2023-07-22T04:24:48;98921.31;;;10.89;100.00
41264;BME280;26998;48.714;9.414;2023-07-22T04:27:16;98923.28;;;10.74;100.00
41264;BME280;26998;48.714;9.414;2023-07-22T04:29:42;98917.19;;;10.86;100.00
41264;BME280;26998;48.714;9.414;2023-07-22T04:32:09;98918.00;;;10.87;100.00
41264;BME280;26998;48.714;9.414;2023-07-22T04:34:35;98917.16;;;10.80;100.00
41264;BME280;26998;48.714;9.414;2023-07-22T04:37:02;98921.56;;;10.59;100.00
41264;BME280;26998;48.714;9.414;2023-07-22T04:39:29;98921.41;;;10.68;100.00
41264;BME280;26998;48.714;9.414;2023-07-22T04:41:55;98911.88;;;10.58;100.00
41264;BME280;26998;48.714;9.414;2023-07-22T04:44:22;98919.38;;;10.70;100.00
41264;BME280;26998;48.714;9.414;2023-07-22T04:46:48;98924.56;;;10.78;100.00
41264;BME280;26998;48.714;9.414;2023-07-22T04:49:15;98928.13;;;10.92;100.00
41264;BME280;26998;48.714;9.414;2023-07-22T04:51:41;98931.94;;;11.24;100.00
41264;BME280;26998;48.714;9.414;2023-07-22T04:54:08;98954.94;;;11.73;100.00
41264;BME280;26998;48.714;9.414;2023-07-22T04:56:34;98995.53;;;11.83;100.00
41264;BME280;26998;48.714;9.414;2023-07-22T04:59:01;99031.25;;;11.90;100.00
41264;BME280;26998;48.714;9.414;2023-07-22T05:01:28;99069.84;;;12.29;100.00
41264;BME280;26998;48.714;9.414;2023-07-22T05:03:54;99130.13;;;12.73;100.00
41264;BME280;26998;48.714;9.414;2023-07-22T05:06:21;99178.84;;;13.56;100.00
41264;BME280;26998;48.714;9.414;2023-07-22T05:08:47;99209.13;;;13.97;100.00
41264;BME280;26998;48.714;9.414;2023-07-22T05:11:14;99210.69;;;14.11;100.00
41264;BME280;26998;48.714;9.414;2023-07-22T05:13:40;99212.09;;;14.33;100.00
41264;BME280;26998;48.714;9.414;2023-07-22T05:16:07;99221.56;;;14.43;100.00
41264;BME280;26998;48.714;9.414;2023-07-22T05:18:33;99222.53;;;14.62;100.00
41264;BME280;26998;48.714;9.414;2023-07-22T05:21:00;99226.19;;;14.22;100.00
41264;BME280;26998;48.714;9.414;2023-07-22T05:23:26;99233.88;;;14.12;100.00
41264;BME280;26998;48.714;9.414;2023-07-22T05:25:53;99242.22;;;13.77;100.00
41264;BME280;26998;48.714;9.414;2023-07-22T05:28:20;99241.25;;;14.23;100.00
41264;BME280;26998;48.714;9.414;2023-07-22T05:30:50;99247.38;;;14.57;100.00
41264;BME280;26998;48.714;9.414;2023-07-22T05:33:17;99237.97;;;15.11;100.00
41264;BME280;26998;48.714;9.414;2023-07-22T05:35:43;99242.63;;;14.91;100.00
41264;BME280;26998;48.714;9.414;2023-07-22T05:38:13;99239.72;;;15.24;100.00
41264;BME280;26998;48.714;9.414;2023-07-22T05:40:41;99205.09;;;15.96;100.00
41264;BME280;26998;48.714;9.414;2023-07-22T05:43:08;99235.78;;;16.13;100.00
41264;BME280;26998;48.714;9.414;2023-07-22T05:45:34;99255.84;;;14.99;100.00
41264;BME280;26998;48.714;9.414;2023-07-22T05:48:01;99260.69;;;14.84;100.00
41264;BME280;26998;48.714;9.414;2023-07-22T05:50:27;99259.53;;;15.05;100.00
41264;BME280;26998;48.714;9.414;2023-07-22T05:52:54;99244.44;;;15.79;100.00
41264;BME280;26998;48.714;9.414;2023-07-22T05:55:20;99217.81;;;16.26;100.00
41264;BME280;26998;48.714;9.414;2023-07-22T05:57:47;99226.94;;;16.06;100.00
41264;BME280;26998;48.714;9.414;2023-07-22T06:00:14;99234.75;;;15.96;100.00
41264;BME280;26998;48.714;9.414;2023-07-22T06:02:41;99231.38;;;16.01;100.00
41264;BME280;26998;48.714;9.414;2023-07-22T06:05:08;99237.97;;;16.05;100.00
41264;BME280;26998;48.714;9.414;2023-07-22T06:07:35;99284.19;;;16.45;100.00
41264;BME280;26998;48.714;9.414;2023-07-22T06:10:02;99267.78;;;16.47;100.00
41264;BME280;26998;48.714;9.414;2023-07-22T06:12:28;99191.78;;;17.22;100.00
41264;BME280;26998;48.714;9.414;2023-07-22T06:14:55;99120.59;;;17.40;100.00
41264;BME280;26998;48.714;9.414;2023-07-22T06:17:22;99148.09;;;17.60;100.00
41264;BME280;26998;48.714;9.414;2023-07-22T06:19:48;99125.19;;;17.51;100.00
41264;BME280;26998;48.714;9.414;2023-07-22T06:22:15;99091.88;;;17.97;100.00
41264;BME280;26998;48.714;9.414;2023-07-22T06:24:42;98987.09;;;18.38;100.00
41264;BME280;26998;48.714;9.414;2023-07-22T06:27:08;98976.59;;;18.59;100.00
41264;BME280;26998;48.714;9.414;2023-07-22T06:29:35;98929.09;;;19.29;100.00
41264;BME280;26998;48.714;9.414;2023-07-22T06:32:01;99017.94;;;17.92;100.00
41264;BME280;26998;48.714;9.414;2023-07-22T06:34:28;98889.31;;;19.34;100.00
41264;BME280;26998;48.714;9.414;2023-07-22T06:36:55;99006.78;;;17.76;100.00
41264;BME280;26998;48.714;9.414;2023-07-22T06:39:21;99084.53;;;17.46;100.00
41264;BME280;26998;48.714;9.414;2023-07-22T06:41:48;99104.59;;;17.62;100.00
41264;BME280;26998;48.714;9.414;2023-07-22T06:44:14;99099.06;;;17.80;100.00
41264;BME280;26998;48.714;9.414;2023-07-22T06:46:41;98993.53;;;19.05;100.00
41264;BME280;26998;48.714;9.414;2023-07-22T06:49:08;99042.19;;;18.32;100.00
41264;BME280;26998;48.714;9.414;2023-07-22T06:51:35;99065.38;;;17.99;100.00
41264;BME280;26998;48.714;9.414;2023-07-22T06:54:02;99098.25;;;17.68;100.00
41264;BME280;26998;48.714;9.414;2023-07-22T06:56:29;99114.88;;;18.00;100.00
41264;BME280;26998;48.714;9.414;2023-07-22T06:58:56;99064.66;;;18.33;100.00
41264;BME280;26998;48.714;9.414;2023-07-22T07:01:22;98937.72;;;19.70;100.00
41264;BME280;26998;48.714;9.414;2023-07-22T07:03:49;99008.34;;;18.63;100.00
41264;BME280;26998;48.714;9.414;2023-07-22T07:06:15;99038.09;;;18.46;100.00
41264;BME280;26998;48.714;9.414;2023-07-22T07:08:42;99059.31;;;17.92;100.00
41264;BME280;26998;48.714;9.414;2023-07-22T07:11:08;99063.94;;;17.80;100.00
41264;BME280;26998;48.714;9.414;2023-07-22T07:13:35;99120.47;;;17.70;100.00
41264;BME280;26998;48.714;9.414;2023-07-22T07:16:22;99138.66;;;17.63;100.00
41264;BME280;26998;48.714;9.414;2023-07-22T07:18:50;99122.59;;;17.56;100.00
41264;BME280;26998;48.714;9.414;2023-07-22T07:21:17;99129.53;;;17.64;100.00
41264;BME280;26998;48.714;9.414;2023-07-22T07:23:44;99133.94;;;17.93;100.00
41264;BME280;26998;48.714;9.414;2023-07-22T07:26:11;99099.69;;;18.39;100.00
41264;BME280;26998;48.714;9.414;2023-07-22T07:28:38;99071.47;;;18.07;100.00
41264;BME280;26998;48.714;9.414;2023-07-22T07:31:04;99057.09;;;18.35;100.00
41264;BME280;26998;48.714;9.414;2023-07-22T07:33:32;99051.34;;;18.31;100.00
41264;BME280;26998;48.714;9.414;2023-07-22T07:35:58;99043.34;;;18.53;100.00
41264;BME280;26998;48.714;9.414;2023-07-22T07:38:25;99016.94;;;18.43;100.00
41264;BME280;26998;48.714;9.414;2023-07-22T07:40:57;98958.63;;;18.86;100.00
41264;BME280;26998;48.714;9.414;2023-07-22T07:43:24;98983.00;;;18.86;100.00
41264;BME280;26998;48.714;9.414;2023-07-22T07:46:14;98957.63;;;19.14;100.00
41264;BME280;26998;48.714;9.414;2023-07-22T07:48:41;98945.78;;;18.99;100.00
41264;BME280;26998;48.714;9.414;2023-07-22T07:51:07;98934.38;;;18.97;100.00
41264;BME280;26998;48.714;9.414;2023-07-22T07:53:34;98933.63;;;18.79;100.00
41264;BME280;26998;48.714;9.414;2023-07-22T07:56:01;98930.56;;;19.14;100.00
41264;BME280;26998;48.714;9.414;2023-07-22T07:58:27;98941.03;;;19.55;100.00
41264;BME280;26998;48.714;9.414;2023-07-22T08:00:54;98907.97;;;19.80;100.00
41264;BME280;26998;48.714;9.414;2023-07-22T08:03:20;98885.75;;;20.15;100.00
41264;BME280;26998;48.714;9.414;2023-07-22T08:05:47;98858.25;;;20.39;100.00
41264;BME280;26998;48.714;9.414;2023-07-22T08:08:13;98834.25;;;20.20;100.00
41264;BME280;26998;48.714;9.414;2023-07-22T08:10:40;98853.81;;;20.27;100.00
41264;BME280;26998;48.714;9.414;2023-07-22T08:13:06;98838.31;;;20.60;100.00
41264;BME280;26998;48.714;9.414;2023-07-22T08:15:33;98825.63;;;20.76;100.00
41264;BME280;26998;48.714;9.414;2023-07-22T08:17:59;98816.03;;;20.58;100.00
41264;BME280;26998;48.714;9.414;2023-07-22T08:20:26;98829.38;;;20.22;100.00
41264;BME280;26998;48.714;9.414;2023-07-22T08:22:52;98815.19;;;20.52;100.00
41264;BME280;26998;48.714;9.414;2023-07-22T08:25:19;98813.34;;;20.63;100.00
41264;BME280;26998;48.714;9.414;2023-07-22T08:27:45;98787.69;;;21.02;100.00
41264;BME280;26998;48.714;9.414;2023-07-22T08:30:12;98784.06;;;20.81;100.00
41264;BME280;26998;48.714;9.414;2023-07-22T08:32:38;98780.94;;;21.19;100.00
41264;BME280;26998;48.714;9.414;2023-07-22T08:35:05;98779.09;;;21.97;100.00
41264;BME280;26998;48.714;9.414;2023-07-22T08:37:32;98761.41;;;21.94;100.00
41264;BME280;26998;48.714;9.414;2023-07-22T08:39:58;98742.91;;;21.86;100.00
41264;BME280;26998;48.714;9.414;2023-07-22T08:42:25;98738.00;;;21.83;100.00
41264;BME280;26998;48.714;9.414;2023-07-22T08:44:56;98732.84;;;21.61;100.00
41264;BME280;26998;48.714;9.414;2023-07-22T08:47:24;98732.00;;;21.86;100.00
41264;BME280;26998;48.714;9.414;2023-07-22T08:49:53;98719.97;;;22.28;100.00
41264;BME280;26998;48.714;9.414;2023-07-22T08:52:23;98714.22;;;22.94;93.65
41264;BME280;26998;48.714;9.414;2023-07-22T08:54:50;98720.75;;;22.33;98.56
41264;BME280;26998;48.714;9.414;2023-07-22T08:57:17;98722.53;;;21.78;100.00
41264;BME280;26998;48.714;9.414;2023-07-22T08:59:44;98721.97;;;21.81;100.00
41264;BME280;26998;48.714;9.414;2023-07-22T09:02:12;98720.09;;;21.56;89.89
41264;BME280;26998;48.714;9.414;2023-07-22T09:04:39;98716.56;;;21.40;95.87
41264;BME280;26998;48.714;9.414;2023-07-22T09:07:07;98723.09;;;21.44;92.58
41264;BME280;26998;48.714;9.414;2023-07-22T09:09:34;98717.28;;;22.12;83.92
41264;BME280;26998;48.714;9.414;2023-07-22T09:12:01;98709.44;;;21.80;84.19
41264;BME280;26998;48.714;9.414;2023-07-22T09:14:27;98706.19;;;21.73;77.65
41264;BME280;26998;48.714;9.414;2023-07-22T09:17:03;98711.91;;;21.82;81.95
41264;BME280;26998;48.714;9.414;2023-07-22T09:19:30;98707.81;;;21.74;82.31
41264;BME280;26998;48.714;9.414;2023-07-22T09:21:56;98711.41;;;21.44;80.20
41264;BME280;26998;48.714;9.414;2023-07-22T09:24:24;98707.28;;;21.31;82.98
41264;BME280;26998;48.714;9.414;2023-07-22T09:26:51;98705.56;;;22.12;74.38
41264;BME280;26998;48.714;9.414;2023-07-22T09:29:18;98699.47;;;22.46;72.05
41264;BME280;26998;48.714;9.414;2023-07-22T09:31:49;98700.97;;;22.67;68.01
41264;BME280;26998;48.714;9.414;2023-07-22T09:34:16;98699.75;;;22.49;67.27
41264;BME280;26998;48.714;9.414;2023-07-22T09:36:50;98697.44;;;22.67;60.08
41264;BME280;26998;48.714;9.414;2023-07-22T09:39:17;98694.06;;;22.41;64.84
41264;BME280;26998;48.714;9.414;2023-07-22T09:41:44;98704.31;;;22.59;60.77
41264;BME280;26998;48.714;9.414;2023-07-22T09:44:10;98697.34;;;22.87;54.71
41264;BME280;26998;48.714;9.414;2023-07-22T09:46:37;98694.56;;;22.97;57.96
41264;BME280;26998;48.714;9.414;2023-07-22T09:49:07;98699.59;;;23.19;58.29
41264;BME280;26998;48.714;9.414;2023-07-22T09:51:37;98685.47;;;23.12;58.36
41264;BME280;26998;48.714;9.414;2023-07-22T09:54:19;98687.03;;;22.79;56.29
41264;BME280;26998;48.714;9.414;2023-07-22T09:56:49;98688.31;;;22.97;56.84
41264;BME280;26998;48.714;9.414;2023-07-22T09:59:18;98680.66;;;22.99;64.55
41264;BME280;26998;48.714;9.414;2023-07-22T10:01:46;98688.34;;;22.87;58.81
41264;BME280;26998;48.714;9.414;2023-07-22T10:04:15;98687.19;;;23.37;59.05
41264;BME280;26998;48.714;9.414;2023-07-22T10:06:43;98687.78;;;23.58;60.13
41264;BME280;26998;48.714;9.414;2023-07-22T10:09:11;98681.41;;;23.73;58.69
41264;BME280;26998;48.714;9.414;2023-07-22T10:11:38;98688.63;;;23.59;53.97
41264;BME280;26998;48.714;9.414;2023-07-22T10:14:05;98690.38;;;23.44;55.70
41264;BME280;26998;48.714;9.414;2023-07-22T10:16:32;98682.09;;;23.55;54.08
41264;BME280;26998;48.714;9.414;2023-07-22T10:18:59;98675.50;;;23.61;56.66
41264;BME280;26998;48.714;9.414;2023-07-22T10:21:28;98678.19;;;23.66;54.95
41264;BME280;26998;48.714;9.414;2023-07-22T10:23:57;98674.56;;;23.76;55.94
41264;BME280;26998;48.714;9.414;2023-07-22T10:26:25;98686.97;;;23.58;57.23
41264;BME280;26998;48.714;9.414;2023-07-22T10:29:12;98682.34;;;23.29;53.77
41264;BME280;26998;48.714;9.414;2023-07-22T10:31:39;98681.06;;;23.50;52.83
41264;BME280;26998;48.714;9.414;2023-07-22T10:34:06;98683.19;;;23.59;56.53
41264;BME280;26998;48.714;9.414;2023-07-22T10:36:32;98676.66;;;24.08;53.35
41264;BME280;26998;48.714;9.414;2023-07-22T10:38:59;98679.75;;;24.25;47.39
41264;BME280;26998;48.714;9.414;2023-07-22T10:41:30;98676.06;;;24.78;47.30
41264;BME280;26998;48.714;9.414;2023-07-22T10:43:58;98674.50;;;24.91;45.44
41264;BME280;26998;48.714;9.414;2023-07-22T10:46:36;98670.16;;;24.71;41.50
41264;BME280;26998;48.714;9.414;2023-07-22T10:49:13;98668.09;;;24.38;42.75
41264;BME280;26998;48.714;9.414;2023-07-22T10:51:47;98679.16;;;24.90;41.87
41264;BME280;26998;48.714;9.414;2023-07-22T10:54:37;98674.94;;;24.98;41.95
41264;BME280;26998;48.714;9.414;2023-07-22T10:59:50;98671.50;;;25.44;39.84
41264;BME280;26998;48.714;9.414;2023-07-22T11:02:29;98664.63;;;25.60;39.40
41264;BME280;26998;48.714;9.414;2023-07-22T11:04:57;98658.94;;;26.03;40.43
41264;BME280;26998;48.714;9.414;2023-07-22T11:07:44;98660.66;;;26.13;39.62
41264;BME280;26998;48.714;9.414;2023-07-22T11:10:13;98660.84;;;25.89;38.01
41264;BME280;26998;48.714;9.414;2023-07-22T11:12:42;98654.91;;;25.21;38.87
41264;BME280;26998;48.714;9.414;2023-07-22T11:15:09;98643.72;;;25.83;39.43
41264;BME280;26998;48.714;9.414;2023-07-22T11:17:37;98649.25;;;25.64;39.40
41264;BME280;26998;48.714;9.414;2023-07-22T11:20:04;98642.25;;;25.58;39.49
41264;BME280;26998;48.714;9.414;2023-07-22T11:22:31;98643.63;;;25.42;40.42
41264;BME280;26998;48.714;9.414;2023-07-22T11:24:57;98640.47;;;25.34;40.94
41264;BME280;26998;48.714;9.414;2023-07-22T11:27:24;98633.63;;;25.18;41.21
41264;BME280;26998;48.714;9.414;2023-07-22T11:29:51;98633.75;;;25.73;40.27
41264;BME280;26998;48.714;9.414;2023-07-22T11:32:19;98627.06;;;25.79;40.66
41264;BME280;26998;48.714;9.414;2023-07-22T11:34:45;98627.31;;;25.50;39.19
41264;BME280;26998;48.714;9.414;2023-07-22T11:37:13;98640.00;;;25.14;39.72
41264;BME280;26998;48.714;9.414;2023-07-22T11:39:40;98620.38;;;25.25;41.13
41264;BME280;26998;48.714;9.414;2023-07-22T11:42:07;98624.16;;;25.10;40.32
41264;BME280;26998;48.714;9.414;2023-07-22T11:44:34;98617.34;;;24.75;42.95
41264;BME280;26998;48.714;9.414;2023-07-22T11:47:05;98628.13;;;25.37;42.95
41264;BME280;26998;48.714;9.414;2023-07-22T11:49:39;98617.13;;;25.23;41.32
41264;BME280;26998;48.714;9.414;2023-07-22T11:52:11;98614.50;;;25.18;39.00
41264;BME280;26998;48.714;9.414;2023-07-22T11:54:42;98615.25;;;25.38;38.25
41264;BME280;26998;48.714;9.414;2023-07-22T11:57:21;98612.56;;;25.51;39.74
41264;BME280;26998;48.714;9.414;2023-07-22T11:59:54;98607.78;;;24.92;38.70
41264;BME280;26998;48.714;9.414;2023-07-22T12:02:23;98606.97;;;24.91;40.01
41264;BME280;26998;48.714;9.414;2023-07-22T12:05:03;98598.53;;;25.39;39.76
41264;BME280;26998;48.714;9.414;2023-07-22T12:07:35;98595.84;;;25.20;39.39
41264;BME280;26998;48.714;9.414;2023-07-22T12:10:08;98598.84;;;25.05;40.44
41264;BME280;26998;48.714;9.414;2023-07-22T12:12:39;98584.22;;;25.28;39.19
41264;BME280;26998;48.714;9.414;2023-07-22T12:17:55;98587.19;;;25.46;39.24
41264;BME280;26998;48.714;9.414;2023-07-22T12:20:26;98581.09;;;25.02;39.87
41264;BME280;26998;48.714;9.414;2023-07-22T12:22:54;98582.09;;;25.25;39.91
41264;BME280;26998;48.714;9.414;2023-07-22T12:25:21;98572.47;;;25.14;40.36
41264;BME280;26998;48.714;9.414;2023-07-22T12:27:47;98576.22;;;25.32;40.50
41264;BME280;26998;48.714;9.414;2023-07-22T12:30:14;98568.63;;;24.96;42.78
41264;BME280;26998;48.714;9.414;2023-07-22T12:32:45;98571.56;;;25.32;42.98
41264;BME280;26998;48.714;9.414;2023-07-22T12:35:12;98569.06;;;25.50;41.96
41264;BME280;26998;48.714;9.414;2023-07-22T12:37:39;98569.75;;;25.28;43.43
41264;BME280;26998;48.714;9.414;2023-07-22T12:40:06;98572.78;;;24.94;44.82
41264;BME280;26998;48.714;9.414;2023-07-22T12:42:32;98565.78;;;25.01;44.37
41264;BME280;26998;48.714;9.414;2023-07-22T12:44:59;98566.22;;;24.76;43.57
41264;BME280;26998;48.714;9.414;2023-07-22T12:47:26;98561.16;;;25.02;43.55
41264;BME280;26998;48.714;9.414;2023-07-22T12:49:53;98546.84;;;25.38;40.31
41264;BME280;26998;48.714;9.414;2023-07-22T12:52:20;98552.53;;;25.69;40.68
41264;BME280;26998;48.714;9.414;2023-07-22T12:54:46;98553.16;;;25.52;40.83
41264;BME280;26998;48.714;9.414;2023-07-22T12:57:13;98563.50;;;25.96;40.96
41264;BME280;26998;48.714;9.414;2023-07-22T12:59:39;98550.25;;;26.26;41.41